Relevés horaires Bouveret (Suisse)


Relevés horaires à Bouveret - Samedi 28 Févr. 2015
Heure UTC1 Température [°C] Vent [km/h] Hum. [%] Pres.4 [hPa] Visi. [Km] Nébu. [octa] Préc.5 [mm] Cond.
2m. Res. Ros. Dir.2 Vit. Moy. Raf.3
23:00 2.5 1 -0.4 ESE 5.6 7.4 11.1 81 1019.6(-1.4/3h) -- -- -- --
22:00 3.5 2.1 0.1 S 5.6 9.3 16.7 78 1020.4(-0.5/3h) -- -- -- --
21:00 2.4 -0.3 0.1 SE 9.3 11.1 16.7 85 1020.5(-0.4/3h) -- -- -- --
20:00 3.0 0.4 -0.3 SE 9.3 9.3 14.8 79 1021(0.4/3h) -- -- -- --
19:00 2.8 0.7 -- SE 7.4 7.4 9.3 -- 1021.1(0.4/3h) -- -- -- --
18:00 3.6 2.3 0.5 S 5.6 9.3 13.0 80 1020.7(-0.1/3h) -- -- -- --
17:00 4.9 4.9 0.6 O 3.7 5.6 7.4 74 1020.3(-0.6/3h) -- -- -- --
16:00 5.4 4.3 0.1 ONO 5.6 5.6 7.4 69 1020.2(-0.9/3h) -- -- -- --
15:00 5.3 3.6 0.1 ONO 7.4 9.3 13.0 69 1020.5(-1.0/3h) -- -- -- --
14:00 5.2 5.2 -0.3 NO 3.7 7.4 9.3 68 1020.8(-1.0/3h) -- -- -- --
13:00 5.0 3.3 -0.6 ONO 7.4 9.3 13.0 67 1021.2(-1.0/3h) -- -- -- --
12:00 4.8 2.2 -0.2 O 11.1 20.4 27.8 70 1021.6(-0.6/3h) -- -- -- --
11:00 4.6 3.4 -- ONO 5.6 7.4 9.3 -- 1022(-0.2/3h) -- -- -- --
10:00 4.5 2.7 0.1 NO 7.4 11.1 16.7 73 1022.3(0.4/3h) -- -- -- --
09:00 4.3 2.5 0.1 N 7.4 20.4 27.8 74 1022.4(0.7/3h) -- -- -- --
08:00 4.1 1.3 0.2 NNO 11.1 14.8 18.5 76 1022.3(0.8/3h) -- -- -- --
07:00 4.2 0.5 0.5 ONO 16.7 20.4 27.8 77 1022(0.6/3h) -- -- -- --
06:00 4.2 0.3 0.3 O 18.5 22.2 29.6 76 1021.6(0.4/3h) -- -- -- --
05:00 4.1 -0.1 0.1 O 20.4 22.2 29.6 75 1021.5(-0.1/3h) -- -- -- --
04:00 4.2 -0.2 0.3 O 22.2 22.2 27.8 76 1021.3(-0.7/3h) -- -- -- --
03:00 4.1 -0.1 0.2 NO 20.4 22.2 27.8 76 1021.2(-1.3/3h) -- -- -- --
02:00 4.4 0 -0.2 ONO 22.2 22.2 27.8 72 1021.5(-1.1/3h) -- -- -- --
01:00 4.5 0.4 -0.2 O 20.4 20.4 25.9 71 1022(-0.3/3h) -- -- -- --
00:00 4.6 0.3 -- O 22.2 25.9 33.3 -- 1022.5(0.2/3h) -- -- -- --

1 Coordinated Universal Time. Actuellement il est 07:00 locale et 05:00 UTC.

2 Le vent souffle depuis la direction indiquée vers la direction oposée.

3 Les rafales max. sont disponible 40 min après l'heure du relevé.

4 Pour les stations d'altitude (plus de 600m) le géopotentiel du niveau le plus proche de la pression obligatoire est indiqué.

5 Les stations disposant d'un diffuseur peuvent indiquer "trace". Cela signifie que des précipitations ont touchés le sol mais que la quantité est inférieure à 0.1 mm.

Copyright

Les données affichées sur cette page sont la propriété exclusive de Météo Suisse.

Récapitulatif de la journée
Température [°C] Vent [km/h] Ensoleillement4 [h] Precipitations totale5 [mm] Pression [Hpa]
Min1 Max.2 Moy.3 Max. Min Max.
4.0 5.4 14.3 33.3 0 h 0 min 0 1019.6 1022.5

1 Température minimale relevée entre 18:00 UTC la veille et 18:00 UTC le jour donné.

2 Température maximale relevée entre 06:00 UTC le jour donné et 06:00 UTC le lendemain.

3 Vent moyen de la journée basé sur les relevés horaires.

4 Ensoleillement en heures relevé entre 06:00 UTC la veille et 06:00 UTC le jour donné.

5 Précipitations totales tombées entre 06:00 UTC la jour donné et 06:00 UTC le lendemain.

Graphiques horaires